createdAt,value
2022-08-23T00:01:18.812Z,101354.88
2022-08-23T00:03:47.840Z,101352.41
2022-08-23T00:06:14.451Z,101348.25
2022-08-23T00:08:47.428Z,101350.06
2022-08-23T00:11:26.815Z,101342.72
2022-08-23T00:13:53.502Z,101335.69
2022-08-23T00:16:20.180Z,101332.34
2022-08-23T00:18:49.242Z,101328.69
2022-08-23T00:21:16.693Z,101322.84
2022-08-23T00:23:43.264Z,101324.50
2022-08-23T00:26:10.066Z,101319.84
2022-08-23T00:28:36.537Z,101326.66
2022-08-23T00:31:03.623Z,101328.81
2022-08-23T00:33:30.066Z,101318.78
2022-08-23T00:35:56.537Z,101326.78
2022-08-23T00:38:34.169Z,101323.94
2022-08-23T00:41:01.972Z,101324.09
2022-08-23T00:43:53.231Z,101325.44
2022-08-23T00:46:59.252Z,101334.44
2022-08-23T00:49:26.196Z,101324.38
2022-08-23T00:52:10.814Z,101329.22
2022-08-23T00:54:41.310Z,101326.25
2022-08-23T00:57:15.707Z,101319.41
2022-08-23T00:59:42.197Z,101325.94
2022-08-23T01:02:09.476Z,101320.72
2022-08-23T01:04:41.530Z,101316.41
2022-08-23T01:07:31.275Z,101309.72
2022-08-23T01:10:05.135Z,101318.56
2022-08-23T01:12:42.989Z,101315.06
2022-08-23T01:15:20.967Z,101314.75
2022-08-23T01:17:56.901Z,101312.94
2022-08-23T01:20:26.955Z,101312.94
2022-08-23T01:23:06.371Z,101314.44
2022-08-23T01:25:34.210Z,101311.25
2022-08-23T01:28:01.298Z,101310.25
2022-08-23T01:30:32.543Z,101317.41
2022-08-23T01:33:01.990Z,101311.53
2022-08-23T01:35:42.167Z,101307.03
2022-08-23T01:38:10.226Z,101305.22
2022-08-23T01:40:37.780Z,101305.38
2022-08-23T01:43:06.401Z,101301.38
2022-08-23T01:45:33.562Z,101305.38
2022-08-23T01:48:00.925Z,101302.88
2022-08-23T01:50:28.832Z,101311.72
2022-08-23T01:52:55.623Z,101317.22
2022-08-23T01:55:23.468Z,101316.72
2022-08-23T01:57:55.024Z,101321.53
2022-08-23T02:00:23.099Z,101319.34
2022-08-23T02:02:49.597Z,101316.22
2022-08-23T02:05:18.848Z,101313.22
2022-08-23T02:07:46.819Z,101312.22
2022-08-23T02:10:13.464Z,101313.09
2022-08-23T02:12:40.227Z,101307.88
2022-08-23T02:15:14.713Z,101316.09
2022-08-23T02:17:44.335Z,101312.06
2022-08-23T02:20:12.347Z,101312.06
2022-08-23T02:22:39.532Z,101303.25
2022-08-23T02:25:07.400Z,101300.56
2022-08-23T02:27:34.576Z,101308.94
2022-08-23T02:30:02.045Z,101292.72
2022-08-23T02:32:29.284Z,101296.22
2022-08-23T02:35:04.616Z,101303.38
2022-08-23T02:37:32.348Z,101304.22
2022-08-23T02:39:58.944Z,101298.03
2022-08-23T02:42:25.503Z,101302.41
2022-08-23T02:44:52.100Z,101304.19
2022-08-23T02:47:20.137Z,101300.53
2022-08-23T02:49:59.706Z,101304.19
2022-08-23T02:52:26.204Z,101305.03
2022-08-23T02:54:53.299Z,101309.22
2022-08-23T02:57:24.864Z,101315.06
2022-08-23T02:59:54.660Z,101312.56
2022-08-23T03:02:21.638Z,101316.22
2022-08-23T03:04:48.409Z,101320.41
2022-08-23T03:07:14.979Z,101310.19
2022-08-23T03:09:41.479Z,101318.03
2022-08-23T03:12:08.006Z,101319.19
2022-08-23T03:14:38.009Z,101327.06
2022-08-23T03:17:06.023Z,101327.56
2022-08-23T03:19:32.531Z,101324.06
2022-08-23T03:22:00.810Z,101336.59
2022-08-23T03:24:29.299Z,101327.19
2022-08-23T03:26:55.903Z,101329.88
2022-08-23T03:29:22.665Z,101335.84
2022-08-23T03:31:58.859Z,101336.84
2022-08-23T03:34:26.279Z,101343.19
2022-08-23T03:36:53.573Z,101334.34
2022-08-23T03:39:20.178Z,101337.53
2022-08-23T03:41:46.699Z,101335.22
2022-08-23T03:44:13.237Z,101337.53
2022-08-23T03:46:42.422Z,101347.53
2022-08-23T03:49:09.193Z,101344.53
2022-08-23T03:51:50.984Z,101352.00
2022-08-23T03:54:17.528Z,101348.16
2022-08-23T03:56:53.007Z,101345.19
2022-08-23T03:59:20.027Z,101342.97
2022-08-23T04:01:46.937Z,101348.84
2022-08-23T04:04:13.964Z,101346.00
2022-08-23T04:06:52.565Z,101346.13
2022-08-23T04:09:19.046Z,101352.50
2022-08-23T04:11:46.654Z,101359.69
2022-08-23T04:14:13.247Z,101356.16
2022-08-23T04:16:40.366Z,101359.00
2022-08-23T04:19:13.068Z,101360.00
2022-08-23T04:21:50.409Z,101345.47
2022-08-23T04:24:18.940Z,101351.00
2022-08-23T04:26:45.723Z,101351.50
2022-08-23T04:29:33.669Z,101350.53
2022-08-23T04:32:05.556Z,101348.50
2022-08-23T04:34:36.190Z,101344.81
2022-08-23T04:37:02.687Z,101357.16
2022-08-23T04:39:29.318Z,101355.50
2022-08-23T04:42:15.304Z,101357.81
2022-08-23T04:44:42.682Z,101364.16
2022-08-23T04:47:09.186Z,101360.97
2022-08-23T04:49:35.867Z,101364.94
2022-08-23T04:52:02.648Z,101373.03
2022-08-23T04:54:31.541Z,101368.50
2022-08-23T04:57:18.242Z,101376.31
2022-08-23T04:59:47.247Z,101376.53
2022-08-23T05:02:15.050Z,101380.50
2022-08-23T05:04:42.481Z,101370.97
2022-08-23T05:07:09.499Z,101373.84
2022-08-23T05:09:36.459Z,101378.66
2022-08-23T05:12:03.506Z,101377.50
2022-08-23T05:14:31.474Z,101386.69
2022-08-23T05:16:58.131Z,101386.53
2022-08-23T05:19:25.630Z,101384.91
2022-08-23T05:21:56.455Z,101391.44
2022-08-23T05:24:27.403Z,101387.94
2022-08-23T05:26:53.869Z,101394.78
2022-08-23T05:29:21.457Z,101395.28
2022-08-23T05:31:50.301Z,101403.41
2022-08-23T05:34:22.782Z,101406.72
2022-08-23T05:36:56.251Z,101410.47
2022-08-23T05:39:36.323Z,101399.13
2022-08-23T05:42:06.964Z,101396.13
2022-08-23T05:44:36.091Z,101394.44
2022-08-23T05:47:11.083Z,101394.00
2022-08-23T05:49:46.121Z,101397.31
2022-08-23T05:52:13.627Z,101394.69
2022-08-23T05:54:42.515Z,101396.50
2022-08-23T05:57:26.290Z,101404.06
2022-08-23T05:59:52.745Z,101406.38
2022-08-23T06:02:19.284Z,101395.53
2022-08-23T06:04:45.778Z,101400.91
2022-08-23T06:07:12.299Z,101404.56
2022-08-23T06:09:39.243Z,101400.69
2022-08-23T06:12:05.768Z,101401.25
2022-08-23T06:14:32.329Z,101395.94
2022-08-23T06:16:58.989Z,101418.81
2022-08-23T06:19:27.164Z,101405.44
2022-08-23T06:22:02.926Z,101403.66
2022-08-23T06:24:33.609Z,101404.16
2022-08-23T06:27:14.488Z,101401.09
2022-08-23T06:29:42.160Z,101402.09
2022-08-23T06:32:27.240Z,101396.81
2022-08-23T06:35:38.050Z,101404.81
2022-08-23T06:38:07.182Z,101409.34
2022-08-23T06:40:49.209Z,101414.22
2022-08-23T06:43:25.575Z,101417.56
2022-08-23T06:46:29.463Z,101416.91
2022-08-23T06:48:57.799Z,101415.91
2022-08-23T06:51:29.073Z,101416.41
2022-08-23T06:54:05.623Z,101421.94
2022-08-23T06:56:43.667Z,101424.28
2022-08-23T06:59:17.139Z,101426.94
2022-08-23T07:02:08.636Z,101423.63
2022-08-23T07:04:55.722Z,101430.81
2022-08-23T07:07:39.730Z,101428.63
2022-08-23T07:10:11.181Z,101420.13
2022-08-23T07:12:42.121Z,101424.28
2022-08-23T07:15:11.525Z,101433.81
2022-08-23T07:17:38.569Z,101432.50
2022-08-23T07:20:05.672Z,101432.00
2022-08-23T07:22:34.763Z,101432.50
2022-08-23T07:25:02.858Z,101429.97
2022-08-23T07:27:29.767Z,101433.66
2022-08-23T07:30:02.585Z,101426.78
2022-08-23T07:32:29.687Z,101435.78
2022-08-23T07:34:57.771Z,101443.47
2022-08-23T07:37:24.626Z,101444.44
2022-08-23T07:39:51.424Z,101450.78
2022-08-23T07:42:24.229Z,101438.88
2022-08-23T07:44:54.169Z,101424.81
2022-08-23T07:47:22.673Z,101437.88
2022-08-23T07:49:49.345Z,101431.28
2022-08-23T07:52:15.762Z,101436.03
2022-08-23T07:54:48.396Z,101437.97
2022-08-23T07:57:27.588Z,101440.34
2022-08-23T08:00:13.106Z,101444.78
2022-08-23T08:02:44.166Z,101443.41
2022-08-23T08:05:21.783Z,101439.41
2022-08-23T08:07:49.195Z,101435.75
2022-08-23T08:10:15.703Z,101450.16
2022-08-23T08:12:42.170Z,101442.38
2022-08-23T08:15:16.428Z,101434.97
2022-08-23T08:17:47.820Z,101441.81
2022-08-23T08:20:19.931Z,101455.38
2022-08-23T08:23:05.620Z,101451.47
2022-08-23T08:26:08.018Z,101458.47
2022-08-23T08:28:36.393Z,101453.34
2022-08-23T08:31:04.062Z,101452.22
2022-08-23T08:33:34.339Z,101453.81
2022-08-23T08:36:04.157Z,101462.59
2022-08-23T08:38:32.416Z,101456.19
2022-08-23T08:41:17.674Z,101456.91
2022-08-23T08:44:08.290Z,101457.31
2022-08-23T08:46:51.535Z,101457.19
2022-08-23T08:49:47.331Z,101463.91
2022-08-23T08:52:32.223Z,101454.66
2022-08-23T08:55:07.976Z,101462.59
2022-08-23T08:57:45.230Z,101461.19
2022-08-23T09:00:16.985Z,101463.19
2022-08-23T09:02:45.211Z,101456.31
2022-08-23T09:05:22.594Z,101450.75
2022-08-23T09:08:03.150Z,101444.91
2022-08-23T09:10:50.832Z,101449.31
2022-08-23T09:13:46.273Z,101446.34
2022-08-23T09:16:29.371Z,101452.16
2022-08-23T09:18:56.964Z,101443.88
2022-08-23T09:21:24.066Z,101452.91
2022-08-23T09:24:00.383Z,101443.72
2022-08-23T09:26:36.549Z,101448.09
2022-08-23T09:29:17.757Z,101440.09
2022-08-23T09:32:26.026Z,101438.69
2022-08-23T09:35:06.207Z,101438.91
2022-08-23T09:37:48.344Z,101442.69
2022-08-23T09:40:25.578Z,101444.56
2022-08-23T09:43:08.422Z,101442.75
2022-08-23T09:45:38.515Z,101443.06
2022-08-23T09:48:13.560Z,101442.03
2022-08-23T09:50:54.618Z,101438.19
2022-08-23T09:53:29.700Z,101446.34
2022-08-23T09:56:09.351Z,101437.97
2022-08-23T09:58:38.722Z,101437.88
2022-08-23T10:01:21.159Z,101429.63
2022-08-23T10:04:12.625Z,101436.38
2022-08-23T10:06:41.856Z,101431.16
2022-08-23T10:09:21.211Z,101427.19
2022-08-23T10:11:48.556Z,101436.25
2022-08-23T10:14:17.884Z,101425.16
2022-08-23T10:17:02.974Z,101427.09
2022-08-23T10:19:49.680Z,101427.94
2022-08-23T10:22:26.797Z,101427.19
2022-08-23T10:25:30.356Z,101429.13
2022-08-23T10:28:48.617Z,101418.00
2022-08-23T10:31:33.171Z,101423.38
2022-08-23T10:34:19.400Z,101427.28
2022-08-23T10:37:16.630Z,101425.56
2022-08-23T10:39:51.593Z,101419.88
2022-08-23T10:42:43.289Z,101424.63
2022-08-23T10:45:27.183Z,101430.44
2022-08-23T10:48:26.896Z,101428.25
2022-08-23T10:51:01.275Z,101433.38
2022-08-23T10:53:37.561Z,101426.72
2022-08-23T10:56:06.003Z,101429.31
2022-08-23T10:58:52.282Z,101426.28
2022-08-23T11:01:30.091Z,101419.75
2022-08-23T11:04:03.005Z,101418.09
2022-08-23T11:06:34.999Z,101429.38
2022-08-23T11:09:28.055Z,101423.72
2022-08-23T11:12:24.299Z,101425.88
2022-08-23T11:14:59.525Z,101423.94
2022-08-23T11:17:37.083Z,101421.34
2022-08-23T11:20:10.372Z,101424.50
2022-08-23T11:23:02.086Z,101421.34
2022-08-23T11:25:28.482Z,101423.75
2022-08-23T11:28:23.412Z,101430.81
2022-08-23T11:30:57.720Z,101426.00
2022-08-23T11:33:45.803Z,101419.13
2022-08-23T11:36:12.800Z,101417.63
2022-08-23T11:38:48.665Z,101412.69
2022-08-23T11:41:19.163Z,101410.97
2022-08-23T11:43:49.543Z,101412.25
2022-08-23T11:46:28.354Z,101420.50
2022-08-23T11:49:28.454Z,101422.00
2022-08-23T11:52:23.380Z,101417.16
2022-08-23T11:55:08.463Z,101423.88
2022-08-23T11:57:54.506Z,101423.91
2022-08-23T12:00:52.462Z,101425.72
2022-08-23T12:03:37.038Z,101419.31
2022-08-23T12:06:08.759Z,101433.63
2022-08-23T12:08:38.166Z,101417.97
2022-08-23T12:11:08.852Z,101435.41
2022-08-23T12:13:46.370Z,101428.97
2022-08-23T12:16:17.708Z,101429.59
2022-08-23T12:18:47.540Z,101428.31
2022-08-23T12:21:37.404Z,101427.75
2022-08-23T12:24:16.337Z,101431.75
2022-08-23T12:26:42.715Z,101422.31
2022-08-23T12:29:19.247Z,101432.28
2022-08-23T12:32:01.299Z,101427.44
2022-08-23T12:34:43.250Z,101427.69
2022-08-23T12:37:22.250Z,101422.94
2022-08-23T12:39:53.606Z,101425.69
2022-08-23T12:42:27.585Z,101426.53
2022-08-23T12:45:17.209Z,101427.03
2022-08-23T12:47:56.681Z,101423.88
2022-08-23T12:50:33.440Z,101411.84
2022-08-23T12:53:09.730Z,101413.75
2022-08-23T12:55:40.758Z,101406.41
2022-08-23T12:58:08.203Z,101398.97
2022-08-23T13:00:43.404Z,101400.31
2022-08-23T13:03:18.955Z,101401.06
2022-08-23T13:05:55.215Z,101399.66
2022-08-23T13:08:47.680Z,101393.97
2022-08-23T13:11:18.345Z,101389.34
2022-08-23T13:13:45.374Z,101392.50
2022-08-23T13:16:42.894Z,101399.13
2022-08-23T13:19:17.684Z,101395.97
2022-08-23T13:21:44.832Z,101394.97
2022-08-23T13:25:24.523Z,101390.09
2022-08-23T13:27:44.937Z,101389.13
2022-08-23T13:30:11.417Z,101395.91
2022-08-23T13:32:46.745Z,101399.63
2022-08-23T13:35:31.435Z,101399.91
2022-08-23T13:38:08.402Z,101403.50
2022-08-23T13:40:52.721Z,101396.97
2022-08-23T13:43:39.666Z,101406.22
2022-08-23T13:46:26.454Z,101403.50
2022-08-23T13:49:09.834Z,101400.31
2022-08-23T13:51:39.464Z,101401.31
2022-08-23T13:54:15.210Z,101395.50
2022-08-23T13:56:48.197Z,101388.25
2022-08-23T13:59:41.119Z,101393.41
2022-08-23T14:02:14.267Z,101389.63
2022-08-23T14:04:41.911Z,101376.44
2022-08-23T14:07:09.858Z,101379.78
2022-08-23T14:09:38.200Z,101376.78
2022-08-23T14:12:15.111Z,101383.22
2022-08-23T14:14:43.511Z,101374.22
2022-08-23T14:17:13.688Z,101383.03
2022-08-23T14:22:33.284Z,101375.91
2022-08-23T14:24:59.732Z,101372.28
2022-08-23T14:27:26.226Z,101377.84
2022-08-23T14:29:52.685Z,101375.22
2022-08-23T14:32:19.104Z,101370.22
2022-08-23T14:34:45.560Z,101373.38
2022-08-23T14:39:58.842Z,101368.53
2022-08-23T14:42:25.619Z,101367.94
2022-08-23T14:44:52.100Z,101371.25
2022-08-23T14:47:19.093Z,101374.50
2022-08-23T14:49:45.575Z,101365.00
2022-08-23T14:52:14.333Z,101367.50
2022-08-23T14:54:41.185Z,101364.03
2022-08-23T14:57:07.606Z,101366.09
2022-08-23T14:59:34.292Z,101367.81
2022-08-23T15:02:01.215Z,101368.09
2022-08-23T15:04:34.594Z,101371.47
2022-08-23T15:07:18.624Z,101358.81
2022-08-23T15:09:56.766Z,101366.50
2022-08-23T15:15:14.696Z,101355.22
2022-08-23T15:17:49.219Z,101362.31
2022-08-23T15:20:15.732Z,101359.50
2022-08-23T15:22:44.947Z,101359.66
2022-08-23T15:25:13.018Z,101360.22
2022-08-23T15:27:39.586Z,101359.56
2022-08-23T15:30:07.403Z,101359.72
2022-08-23T15:32:33.831Z,101363.41
2022-08-23T15:35:00.422Z,101359.50
2022-08-23T15:37:27.190Z,101357.88
2022-08-23T15:39:53.685Z,101361.09
2022-08-23T15:42:20.715Z,101352.94
2022-08-23T15:44:48.126Z,101350.84
2022-08-23T15:47:21.710Z,101351.66
2022-08-23T15:49:48.717Z,101348.97
2022-08-23T15:52:15.247Z,101349.41
2022-08-23T15:54:42.028Z,101356.91
2022-08-23T15:57:08.726Z,101354.38
2022-08-23T15:59:37.576Z,101349.34
2022-08-23T16:02:04.660Z,101355.41
2022-08-23T16:04:35.952Z,101355.41
2022-08-23T16:07:05.544Z,101350.38
2022-08-23T16:09:34.098Z,101349.38
2022-08-23T16:12:01.014Z,101354.81
2022-08-23T16:14:27.503Z,101354.19
2022-08-23T16:16:56.854Z,101347.59
2022-08-23T16:19:23.387Z,101349.72
2022-08-23T16:21:52.933Z,101343.88
2022-08-23T16:24:20.415Z,101351.41
2022-08-23T16:26:51.710Z,101337.63
2022-08-23T16:29:19.858Z,101337.94
2022-08-23T16:31:47.281Z,101339.41
2022-08-23T16:34:18.189Z,101344.97
2022-08-23T16:36:47.817Z,101344.91
2022-08-23T16:39:16.252Z,101349.28
2022-08-23T16:41:42.923Z,101344.66
2022-08-23T16:44:09.561Z,101341.78
2022-08-23T16:46:36.534Z,101341.97
2022-08-23T16:49:03.058Z,101342.81
2022-08-23T16:51:29.566Z,101340.28
2022-08-23T16:54:02.304Z,101353.72
2022-08-23T16:56:33.983Z,101354.13
2022-08-23T16:59:01.887Z,101354.59
2022-08-23T17:01:29.399Z,101346.81
2022-08-23T17:03:56.151Z,101352.44
2022-08-23T17:06:22.803Z,101354.38
2022-08-23T17:08:49.362Z,101357.16
2022-08-23T17:11:18.917Z,101360.78
2022-08-23T17:13:45.573Z,101361.84
2022-08-23T17:16:12.041Z,101365.84
2022-08-23T17:18:38.864Z,101364.69
2022-08-23T17:21:05.764Z,101366.56
2022-08-23T17:23:32.436Z,101371.69
2022-08-23T17:25:59.611Z,101379.34
2022-08-23T17:28:26.058Z,101381.53
2022-08-23T17:30:52.656Z,101384.19
2022-08-23T17:33:19.400Z,101391.84
2022-08-23T17:35:46.397Z,101387.78
2022-08-23T17:38:13.340Z,101382.16
2022-08-23T17:40:41.170Z,101395.41
2022-08-23T17:43:08.247Z,101401.84
2022-08-23T17:45:46.430Z,101404.53
2022-08-23T17:48:14.605Z,101403.88
2022-08-23T17:50:43.362Z,101415.63
2022-08-23T17:53:11.279Z,101405.16
2022-08-23T17:55:39.215Z,101408.56
2022-08-23T17:58:07.865Z,101416.72
2022-08-23T18:00:36.586Z,101419.50
2022-08-23T18:03:04.083Z,101433.59
2022-08-23T18:05:33.242Z,101430.69
2022-08-23T18:08:00.328Z,101434.59
2022-08-23T18:10:27.017Z,101440.44
2022-08-23T18:12:53.450Z,101432.47
2022-08-23T18:15:20.392Z,101438.28
2022-08-23T18:17:46.903Z,101447.06
2022-08-23T18:20:13.765Z,101439.22
2022-08-23T18:22:40.619Z,101445.53
2022-08-23T18:25:09.647Z,101451.69
2022-08-23T18:27:55.067Z,101454.81
2022-08-23T18:30:21.569Z,101458.94
2022-08-23T18:32:48.010Z,101465.09
2022-08-23T18:35:14.990Z,101459.75
2022-08-23T18:37:41.901Z,101463.59
2022-08-23T18:40:10.140Z,101450.25
2022-08-23T18:42:36.797Z,101462.03
2022-08-23T18:45:04.494Z,101463.38
2022-08-23T18:47:30.922Z,101470.06
2022-08-23T18:49:57.533Z,101471.63
2022-08-23T18:52:24.040Z,101466.00
2022-08-23T18:54:50.488Z,101475.28
2022-08-23T18:57:17.759Z,101481.50
2022-08-23T18:59:44.439Z,101482.22
2022-08-23T19:02:11.356Z,101486.69
2022-08-23T19:04:37.913Z,101487.03
2022-08-23T19:07:05.081Z,101489.66
2022-08-23T19:09:31.546Z,101485.50
2022-08-23T19:12:00.718Z,101495.00
2022-08-23T19:14:28.276Z,101492.38
2022-08-23T19:16:55.257Z,101491.78
2022-08-23T19:19:23.037Z,101500.44
2022-08-23T19:21:50.250Z,101491.81
2022-08-23T19:24:17.083Z,101499.56
2022-08-23T19:26:47.327Z,101488.72
2022-08-23T19:29:16.066Z,101500.22
2022-08-23T19:31:46.523Z,101502.28
2022-08-23T19:34:17.474Z,101514.97
2022-08-23T19:36:49.066Z,101513.53
2022-08-23T19:39:18.779Z,101520.59
2022-08-23T19:41:48.338Z,101517.13
2022-08-23T19:44:15.565Z,101526.88
2022-08-23T19:46:44.638Z,101529.59
2022-08-23T19:49:13.146Z,101526.31
2022-08-23T19:51:39.903Z,101530.31
2022-08-23T19:54:11.507Z,101526.50
2022-08-23T19:56:48.284Z,101531.44
2022-08-23T19:59:20.852Z,101525.44
2022-08-23T20:01:49.184Z,101538.03
2022-08-23T20:04:16.059Z,101532.19
2022-08-23T20:06:42.655Z,101534.41
2022-08-23T20:09:09.399Z,101543.50
2022-08-23T20:11:37.111Z,101551.72
2022-08-23T20:14:05.357Z,101549.25
2022-08-23T20:16:32.717Z,101551.59
2022-08-23T20:19:00.322Z,101546.56
2022-08-23T20:21:27.550Z,101546.63
2022-08-23T20:24:01.597Z,101549.97
2022-08-23T20:26:40.974Z,101545.63
2022-08-23T20:29:21.803Z,101556.53
2022-08-23T20:31:57.160Z,101555.88
2022-08-23T20:34:27.144Z,101550.38
2022-08-23T20:36:56.195Z,101556.75
2022-08-23T20:39:24.408Z,101554.06
2022-08-23T20:41:52.383Z,101558.59
2022-08-23T20:44:23.754Z,101563.44
2022-08-23T20:46:54.019Z,101559.28
2022-08-23T20:49:22.936Z,101559.94
2022-08-23T20:51:50.397Z,101557.09
2022-08-23T20:54:17.125Z,101563.31
2022-08-23T20:56:43.832Z,101563.13
2022-08-23T20:59:10.371Z,101561.31
2022-08-23T21:01:36.820Z,101557.13
2022-08-23T21:04:03.642Z,101558.13
2022-08-23T21:06:45.772Z,101563.97
2022-08-23T21:09:16.914Z,101559.13
2022-08-23T21:11:44.010Z,101553.94
2022-08-23T21:14:10.470Z,101559.13
2022-08-23T21:16:37.088Z,101554.78
2022-08-23T21:19:03.843Z,101556.44
2022-08-23T21:21:30.612Z,101553.75
2022-08-23T21:23:57.497Z,101554.59
2022-08-23T21:26:24.880Z,101558.94
2022-08-23T21:28:52.285Z,101566.78
2022-08-23T21:31:22.514Z,101561.91
2022-08-23T21:33:49.012Z,101567.25
2022-08-23T21:36:16.936Z,101563.56
2022-08-23T21:38:43.531Z,101556.03
2022-08-23T21:41:44.738Z,101560.19
2022-08-23T21:44:13.914Z,101565.38
2022-08-23T21:46:41.471Z,101558.69
2022-08-23T21:49:08.351Z,101550.81
2022-08-23T21:51:38.860Z,101553.28
2022-08-23T21:54:07.570Z,101559.94
2022-08-23T21:56:34.026Z,101553.41
2022-08-23T21:59:02.203Z,101558.78
2022-08-23T22:01:31.291Z,101551.22
2022-08-23T22:03:58.635Z,101549.03
2022-08-23T22:06:25.128Z,101547.69
2022-08-23T22:08:51.811Z,101548.00
2022-08-23T22:11:18.731Z,101550.19
2022-08-23T22:13:45.338Z,101557.00
2022-08-23T22:16:12.078Z,101552.47
2022-08-23T22:18:39.072Z,101561.97
2022-08-23T22:21:06.969Z,101558.63
2022-08-23T22:23:36.395Z,101550.22
2022-08-23T22:26:05.850Z,101554.22
2022-08-23T22:28:33.165Z,101549.34
2022-08-23T22:31:01.417Z,101543.19
2022-08-23T22:33:28.336Z,101536.94
2022-08-23T22:35:55.117Z,101548.28
2022-08-23T22:38:21.591Z,101553.63
2022-08-23T22:40:49.736Z,101550.25
2022-08-23T22:43:17.287Z,101552.09
2022-08-23T22:45:55.453Z,101547.56
2022-08-23T22:48:23.015Z,101542.66
2022-08-23T22:50:49.765Z,101539.31
2022-08-23T22:53:17.914Z,101552.16
2022-08-23T22:55:50.400Z,101549.47
2022-08-23T22:58:16.830Z,101545.75
2022-08-23T23:00:43.876Z,101546.94
2022-08-23T23:03:10.591Z,101551.59
2022-08-23T23:05:37.229Z,101554.31
2022-08-23T23:08:22.736Z,101555.38
2022-08-23T23:10:49.304Z,101557.44
2022-08-23T23:13:15.954Z,101546.94
2022-08-23T23:15:42.394Z,101553.44
2022-08-23T23:18:08.866Z,101553.44
2022-08-23T23:20:38.980Z,101556.47
2022-08-23T23:23:10.573Z,101556.09
2022-08-23T23:25:39.856Z,101551.06
2022-08-23T23:28:06.512Z,101549.00
2022-08-23T23:30:34.294Z,101552.13
2022-08-23T23:33:00.878Z,101556.84
2022-08-23T23:35:28.306Z,101559.16
2022-08-23T23:37:55.976Z,101556.44
2022-08-23T23:40:23.517Z,101553.44
2022-08-23T23:42:50.113Z,101554.44
2022-08-23T23:45:17.160Z,101549.75
2022-08-23T23:47:43.869Z,101553.53
2022-08-23T23:50:11.201Z,101553.66
2022-08-23T23:52:38.313Z,101551.06
2022-08-23T23:55:07.475Z,101550.44
2022-08-23T23:57:33.894Z,101550.19
